sensor_id;sensor_type;location;lat;lon;timestamp;temperature;humidity
24410;DHT22;12543;53.364;-1.504;2023-01-04T00:01:47;11.50;99.90
24410;DHT22;12543;53.364;-1.504;2023-01-04T00:04:15;11.50;99.90
24410;DHT22;12543;53.364;-1.504;2023-01-04T00:06:42;11.60;99.90
24410;DHT22;12543;53.364;-1.504;2023-01-04T00:09:09;11.60;99.90
24410;DHT22;12543;53.364;-1.504;2023-01-04T00:11:36;11.50;99.90
24410;DHT22;12543;53.364;-1.504;2023-01-04T00:14:03;11.60;99.90
24410;DHT22;12543;53.364;-1.504;2023-01-04T00:16:30;11.60;99.90
24410;DHT22;12543;53.364;-1.504;2023-01-04T00:18:57;11.50;99.90
24410;DHT22;12543;53.364;-1.504;2023-01-04T00:21:27;11.60;99.90
24410;DHT22;12543;53.364;-1.504;2023-01-04T00:23:56;11.60;99.90
24410;DHT22;12543;53.364;-1.504;2023-01-04T00:26:27;11.60;99.90
24410;DHT22;12543;53.364;-1.504;2023-01-04T00:29:01;11.60;99.90
24410;DHT22;12543;53.364;-1.504;2023-01-04T00:31:29;11.60;99.90
24410;DHT22;12543;53.364;-1.504;2023-01-04T00:33:58;11.60;99.90
24410;DHT22;12543;53.364;-1.504;2023-01-04T00:36:27;11.60;99.90
24410;DHT22;12543;53.364;-1.504;2023-01-04T00:38:54;11.60;99.90
24410;DHT22;12543;53.364;-1.504;2023-01-04T00:41:49;11.60;99.90
24410;DHT22;12543;53.364;-1.504;2023-01-04T00:44:26;11.50;99.90
24410;DHT22;12543;53.364;-1.504;2023-01-04T00:46:54;11.60;99.90
24410;DHT22;12543;53.364;-1.504;2023-01-04T00:49:21;11.60;99.90
24410;DHT22;12543;53.364;-1.504;2023-01-04T00:51:48;11.60;99.90
24410;DHT22;12543;53.364;-1.504;2023-01-04T00:54:18;11.60;99.90
24410;DHT22;12543;53.364;-1.504;2023-01-04T00:56:45;11.60;99.90
24410;DHT22;12543;53.364;-1.504;2023-01-04T00:59:14;11.60;99.90
24410;DHT22;12543;53.364;-1.504;2023-01-04T01:01:42;11.60;99.90
24410;DHT22;12543;53.364;-1.504;2023-01-04T01:04:15;11.50;99.90
24410;DHT22;12543;53.364;-1.504;2023-01-04T01:06:43;11.60;99.90
24410;DHT22;12543;53.364;-1.504;2023-01-04T01:09:10;11.60;99.90
24410;DHT22;12543;53.364;-1.504;2023-01-04T01:11:38;11.60;99.90
24410;DHT22;12543;53.364;-1.504;2023-01-04T01:14:08;11.50;99.90
24410;DHT22;12543;53.364;-1.504;2023-01-04T01:16:39;11.50;99.90
24410;DHT22;12543;53.364;-1.504;2023-01-04T01:19:26;11.60;99.90
24410;DHT22;12543;53.364;-1.504;2023-01-04T01:21:54;11.60;99.90
24410;DHT22;12543;53.364;-1.504;2023-01-04T01:24:24;11.60;99.90
24410;DHT22;12543;53.364;-1.504;2023-01-04T01:26:52;11.50;99.90
24410;DHT22;12543;53.364;-1.504;2023-01-04T01:29:19;11.50;99.90
24410;DHT22;12543;53.364;-1.504;2023-01-04T01:31:46;11.50;99.90
24410;DHT22;12543;53.364;-1.504;2023-01-04T01:34:13;11.50;99.90
24410;DHT22;12543;53.364;-1.504;2023-01-04T01:36:40;11.50;99.90
24410;DHT22;12543;53.364;-1.504;2023-01-04T01:39:07;11.50;99.90
24410;DHT22;12543;53.364;-1.504;2023-01-04T01:41:35;11.50;99.90
24410;DHT22;12543;53.364;-1.504;2023-01-04T01:44:45;11.50;99.90
24410;DHT22;12543;53.364;-1.504;2023-01-04T01:46:53;11.50;99.90
24410;DHT22;12543;53.364;-1.504;2023-01-04T01:49:30;11.50;99.90
24410;DHT22;12543;53.364;-1.504;2023-01-04T01:52:01;11.50;99.90
24410;DHT22;12543;53.364;-1.504;2023-01-04T01:54:31;11.50;99.90
24410;DHT22;12543;53.364;-1.504;2023-01-04T01:57:03;11.50;99.90
24410;DHT22;12543;53.364;-1.504;2023-01-04T01:59:33;11.50;99.90
24410;DHT22;12543;53.364;-1.504;2023-01-04T02:02:03;11.50;99.90
24410;DHT22;12543;53.364;-1.504;2023-01-04T02:04:31;11.50;99.90
24410;DHT22;12543;53.364;-1.504;2023-01-04T02:06:58;11.50;99.90
24410;DHT22;12543;53.364;-1.504;2023-01-04T02:09:29;11.50;99.90
24410;DHT22;12543;53.364;-1.504;2023-01-04T02:11:58;11.50;99.90
24410;DHT22;12543;53.364;-1.504;2023-01-04T02:14:25;11.50;99.90
24410;DHT22;12543;53.364;-1.504;2023-01-04T02:25:37;11.40;99.90
24410;DHT22;12543;53.364;-1.504;2023-01-04T02:31:14;11.40;99.90
24410;DHT22;12543;53.364;-1.504;2023-01-04T02:33:56;11.40;99.90
24410;DHT22;12543;53.364;-1.504;2023-01-04T02:42:32;11.40;99.90
24410;DHT22;12543;53.364;-1.504;2023-01-04T02:45:26;11.40;99.90
24410;DHT22;12543;53.364;-1.504;2023-01-04T02:47:54;11.40;99.90
24410;DHT22;12543;53.364;-1.504;2023-01-04T02:53:22;11.40;99.90
24410;DHT22;12543;53.364;-1.504;2023-01-04T02:58:50;11.40;99.90
24410;DHT22;12543;53.364;-1.504;2023-01-04T03:07:12;11.40;99.90
24410;DHT22;12543;53.364;-1.504;2023-01-04T03:09:45;11.40;99.90
24410;DHT22;12543;53.364;-1.504;2023-01-04T03:12:23;11.40;99.90
24410;DHT22;12543;53.364;-1.504;2023-01-04T03:15:14;11.40;99.90
24410;DHT22;12543;53.364;-1.504;2023-01-04T03:17:48;11.40;99.90
24410;DHT22;12543;53.364;-1.504;2023-01-04T03:20:17;11.40;99.90
24410;DHT22;12543;53.364;-1.504;2023-01-04T03:22:57;11.40;99.90
24410;DHT22;12543;53.364;-1.504;2023-01-04T03:25:57;11.40;99.90
24410;DHT22;12543;53.364;-1.504;2023-01-04T03:28:44;11.40;99.90
24410;DHT22;12543;53.364;-1.504;2023-01-04T03:31:43;11.40;99.90
24410;DHT22;12543;53.364;-1.504;2023-01-04T03:34:50;11.40;99.90
24410;DHT22;12543;53.364;-1.504;2023-01-04T03:37:55;11.40;99.90
24410;DHT22;12543;53.364;-1.504;2023-01-04T03:40:45;11.40;99.90
24410;DHT22;12543;53.364;-1.504;2023-01-04T03:43:42;11.40;99.90
24410;DHT22;12543;53.364;-1.504;2023-01-04T03:46:44;11.40;99.90
24410;DHT22;12543;53.364;-1.504;2023-01-04T03:49:39;11.40;99.90
24410;DHT22;12543;53.364;-1.504;2023-01-04T03:52:08;11.40;99.90
24410;DHT22;12543;53.364;-1.504;2023-01-04T03:54:38;11.30;99.90
24410;DHT22;12543;53.364;-1.504;2023-01-04T03:57:08;11.40;99.90
24410;DHT22;12543;53.364;-1.504;2023-01-04T03:59:42;11.40;99.90
24410;DHT22;12543;53.364;-1.504;2023-01-04T04:02:12;11.40;99.90
24410;DHT22;12543;53.364;-1.504;2023-01-04T04:04:41;11.40;99.90
24410;DHT22;12543;53.364;-1.504;2023-01-04T04:07:27;11.40;99.90
24410;DHT22;12543;53.364;-1.504;2023-01-04T04:10:12;11.40;99.90
24410;DHT22;12543;53.364;-1.504;2023-01-04T04:12:40;11.40;99.90
24410;DHT22;12543;53.364;-1.504;2023-01-04T04:15:07;11.40;99.90
24410;DHT22;12543;53.364;-1.504;2023-01-04T04:17:34;11.40;99.90
24410;DHT22;12543;53.364;-1.504;2023-01-04T04:20:02;11.40;99.90
24410;DHT22;12543;53.364;-1.504;2023-01-04T04:22:29;11.40;99.90
24410;DHT22;12543;53.364;-1.504;2023-01-04T04:24:56;11.40;99.90
24410;DHT22;12543;53.364;-1.504;2023-01-04T04:27:23;11.40;99.90
24410;DHT22;12543;53.364;-1.504;2023-01-04T04:29:51;11.30;99.90
24410;DHT22;12543;53.364;-1.504;2023-01-04T04:32:18;11.40;99.90
24410;DHT22;12543;53.364;-1.504;2023-01-04T04:34:45;11.30;99.90
24410;DHT22;12543;53.364;-1.504;2023-01-04T04:37:15;11.30;99.90
24410;DHT22;12543;53.364;-1.504;2023-01-04T04:39:42;11.30;99.90
24410;DHT22;12543;53.364;-1.504;2023-01-04T04:42:09;11.20;99.90
24410;DHT22;12543;53.364;-1.504;2023-01-04T04:44:36;11.20;99.90
24410;DHT22;12543;53.364;-1.504;2023-01-04T04:47:03;11.10;99.90
24410;DHT22;12543;53.364;-1.504;2023-01-04T04:49:31;11.10;99.90
24410;DHT22;12543;53.364;-1.504;2023-01-04T04:51:58;11.00;99.90
24410;DHT22;12543;53.364;-1.504;2023-01-04T04:54:25;10.90;99.90
24410;DHT22;12543;53.364;-1.504;2023-01-04T04:56:53;10.90;99.90
24410;DHT22;12543;53.364;-1.504;2023-01-04T04:59:20;10.80;99.90
24410;DHT22;12543;53.364;-1.504;2023-01-04T05:01:47;10.80;99.90
24410;DHT22;12543;53.364;-1.504;2023-01-04T05:04:15;10.70;99.90
24410;DHT22;12543;53.364;-1.504;2023-01-04T05:06:47;10.60;99.90
24410;DHT22;12543;53.364;-1.504;2023-01-04T05:09:15;10.60;99.90
24410;DHT22;12543;53.364;-1.504;2023-01-04T05:11:43;10.50;99.90
24410;DHT22;12543;53.364;-1.504;2023-01-04T05:14:28;10.50;99.90
24410;DHT22;12543;53.364;-1.504;2023-01-04T05:16:56;10.40;99.90
24410;DHT22;12543;53.364;-1.504;2023-01-04T05:19:23;10.40;99.90
24410;DHT22;12543;53.364;-1.504;2023-01-04T05:21:50;10.40;99.90
24410;DHT22;12543;53.364;-1.504;2023-01-04T05:24:17;10.40;99.90
24410;DHT22;12543;53.364;-1.504;2023-01-04T05:26:45;10.30;99.90
24410;DHT22;12543;53.364;-1.504;2023-01-04T05:29:12;10.30;99.90
24410;DHT22;12543;53.364;-1.504;2023-01-04T05:31:59;10.20;99.90
24410;DHT22;12543;53.364;-1.504;2023-01-04T05:34:26;10.20;99.90
24410;DHT22;12543;53.364;-1.504;2023-01-04T05:36:54;10.10;99.90
24410;DHT22;12543;53.364;-1.504;2023-01-04T05:39:21;10.10;99.90
24410;DHT22;12543;53.364;-1.504;2023-01-04T05:41:48;10.10;99.90
24410;DHT22;12543;53.364;-1.504;2023-01-04T05:44:34;10.00;99.90
24410;DHT22;12543;53.364;-1.504;2023-01-04T05:47:01;10.00;99.90
24410;DHT22;12543;53.364;-1.504;2023-01-04T05:49:28;10.00;99.90
24410;DHT22;12543;53.364;-1.504;2023-01-04T05:51:55;10.00;99.90
24410;DHT22;12543;53.364;-1.504;2023-01-04T05:54:22;10.00;99.90
24410;DHT22;12543;53.364;-1.504;2023-01-04T05:56:49;10.00;99.90
24410;DHT22;12543;53.364;-1.504;2023-01-04T05:59:16;10.00;99.90
24410;DHT22;12543;53.364;-1.504;2023-01-04T06:01:43;10.00;99.90
24410;DHT22;12543;53.364;-1.504;2023-01-04T06:04:11;10.00;99.90
24410;DHT22;12543;53.364;-1.504;2023-01-04T06:06:38;10.00;99.90
24410;DHT22;12543;53.364;-1.504;2023-01-04T06:09:05;10.00;99.90
24410;DHT22;12543;53.364;-1.504;2023-01-04T06:11:32;10.00;99.90
24410;DHT22;12543;53.364;-1.504;2023-01-04T06:13:59;10.00;99.90
24410;DHT22;12543;53.364;-1.504;2023-01-04T06:16:26;10.00;99.90
24410;DHT22;12543;53.364;-1.504;2023-01-04T06:18:53;10.00;99.90
24410;DHT22;12543;53.364;-1.504;2023-01-04T06:21:20;10.00;99.90
24410;DHT22;12543;53.364;-1.504;2023-01-04T06:23:47;10.10;99.90
24410;DHT22;12543;53.364;-1.504;2023-01-04T06:26:14;10.10;99.90
24410;DHT22;12543;53.364;-1.504;2023-01-04T06:28:41;10.10;99.90
24410;DHT22;12543;53.364;-1.504;2023-01-04T06:31:10;10.10;99.90
24410;DHT22;12543;53.364;-1.504;2023-01-04T06:33:38;10.20;99.90
24410;DHT22;12543;53.364;-1.504;2023-01-04T06:36:06;10.20;99.90
24410;DHT22;12543;53.364;-1.504;2023-01-04T06:38:45;10.20;99.90
24410;DHT22;12543;53.364;-1.504;2023-01-04T06:41:12;10.20;99.90
24410;DHT22;12543;53.364;-1.504;2023-01-04T06:43:39;10.20;99.90
24410;DHT22;12543;53.364;-1.504;2023-01-04T06:46:06;10.20;99.90
24410;DHT22;12543;53.364;-1.504;2023-01-04T06:48:34;10.20;99.90
24410;DHT22;12543;53.364;-1.504;2023-01-04T06:51:01;10.20;99.90
24410;DHT22;12543;53.364;-1.504;2023-01-04T06:53:28;10.20;99.90
24410;DHT22;12543;53.364;-1.504;2023-01-04T06:55:55;10.20;99.90
24410;DHT22;12543;53.364;-1.504;2023-01-04T06:58:22;10.20;99.90
24410;DHT22;12543;53.364;-1.504;2023-01-04T07:00:52;10.20;99.90
24410;DHT22;12543;53.364;-1.504;2023-01-04T07:03:21;10.20;99.90
24410;DHT22;12543;53.364;-1.504;2023-01-04T07:05:48;10.20;99.90
24410;DHT22;12543;53.364;-1.504;2023-01-04T07:08:15;10.20;99.90
24410;DHT22;12543;53.364;-1.504;2023-01-04T07:10:42;10.20;99.90
24410;DHT22;12543;53.364;-1.504;2023-01-04T07:13:09;10.20;99.90
24410;DHT22;12543;53.364;-1.504;2023-01-04T07:15:36;10.20;99.90
24410;DHT22;12543;53.364;-1.504;2023-01-04T07:18:08;10.20;99.90
24410;DHT22;12543;53.364;-1.504;2023-01-04T07:20:36;10.20;99.90
24410;DHT22;12543;53.364;-1.504;2023-01-04T07:23:04;10.20;99.90
24410;DHT22;12543;53.364;-1.504;2023-01-04T07:25:31;10.20;99.90
24410;DHT22;12543;53.364;-1.504;2023-01-04T07:27:59;10.20;99.90
24410;DHT22;12543;53.364;-1.504;2023-01-04T07:30:26;10.20;99.90
24410;DHT22;12543;53.364;-1.504;2023-01-04T07:32:54;10.20;99.90
24410;DHT22;12543;53.364;-1.504;2023-01-04T07:35:21;10.20;99.90
24410;DHT22;12543;53.364;-1.504;2023-01-04T07:37:49;10.20;99.90
24410;DHT22;12543;53.364;-1.504;2023-01-04T07:40:24;10.20;99.90
24410;DHT22;12543;53.364;-1.504;2023-01-04T07:42:55;10.10;99.90
24410;DHT22;12543;53.364;-1.504;2023-01-04T07:45:23;10.20;99.90
24410;DHT22;12543;53.364;-1.504;2023-01-04T07:47:50;10.10;99.90
24410;DHT22;12543;53.364;-1.504;2023-01-04T07:50:17;10.10;99.90
24410;DHT22;12543;53.364;-1.504;2023-01-04T07:52:44;10.10;99.90
24410;DHT22;12543;53.364;-1.504;2023-01-04T07:55:11;10.10;99.90
24410;DHT22;12543;53.364;-1.504;2023-01-04T07:57:38;10.00;99.90
24410;DHT22;12543;53.364;-1.504;2023-01-04T08:00:06;10.00;99.90
24410;DHT22;12543;53.364;-1.504;2023-01-04T08:02:37;10.00;99.90
24410;DHT22;12543;53.364;-1.504;2023-01-04T08:05:05;10.00;99.90
24410;DHT22;12543;53.364;-1.504;2023-01-04T08:07:32;10.00;99.90
24410;DHT22;12543;53.364;-1.504;2023-01-04T08:09:59;10.00;99.90
24410;DHT22;12543;53.364;-1.504;2023-01-04T08:12:27;9.90;99.90
24410;DHT22;12543;53.364;-1.504;2023-01-04T08:14:54;9.90;99.90
24410;DHT22;12543;53.364;-1.504;2023-01-04T08:17:21;9.90;99.90
24410;DHT22;12543;53.364;-1.504;2023-01-04T08:19:48;9.90;99.90
24410;DHT22;12543;53.364;-1.504;2023-01-04T08:22:15;9.90;99.90
24410;DHT22;12543;53.364;-1.504;2023-01-04T08:24:42;9.90;99.90
24410;DHT22;12543;53.364;-1.504;2023-01-04T08:27:09;9.90;99.90
24410;DHT22;12543;53.364;-1.504;2023-01-04T08:29:36;9.90;99.90
24410;DHT22;12543;53.364;-1.504;2023-01-04T08:32:04;9.90;99.90
24410;DHT22;12543;53.364;-1.504;2023-01-04T08:34:31;9.90;99.90
24410;DHT22;12543;53.364;-1.504;2023-01-04T08:36:59;9.90;99.90
24410;DHT22;12543;53.364;-1.504;2023-01-04T08:39:26;9.90;99.90
24410;DHT22;12543;53.364;-1.504;2023-01-04T08:41:55;9.90;99.90
24410;DHT22;12543;53.364;-1.504;2023-01-04T08:44:30;9.90;99.90
24410;DHT22;12543;53.364;-1.504;2023-01-04T08:47:00;9.90;99.90
24410;DHT22;12543;53.364;-1.504;2023-01-04T08:49:27;9.90;99.90
24410;DHT22;12543;53.364;-1.504;2023-01-04T08:51:55;9.90;99.90
24410;DHT22;12543;53.364;-1.504;2023-01-04T08:54:22;9.90;99.90
24410;DHT22;12543;53.364;-1.504;2023-01-04T08:56:49;9.80;99.90
24410;DHT22;12543;53.364;-1.504;2023-01-04T08:59:16;9.80;99.90
24410;DHT22;12543;53.364;-1.504;2023-01-04T09:01:43;9.80;99.90
24410;DHT22;12543;53.364;-1.504;2023-01-04T09:04:12;9.80;99.90
24410;DHT22;12543;53.364;-1.504;2023-01-04T09:06:39;9.80;99.90
24410;DHT22;12543;53.364;-1.504;2023-01-04T09:09:06;9.80;99.90
24410;DHT22;12543;53.364;-1.504;2023-01-04T09:11:33;9.80;99.90
24410;DHT22;12543;53.364;-1.504;2023-01-04T09:14:01;9.80;99.90
24410;DHT22;12543;53.364;-1.504;2023-01-04T09:16:33;9.80;99.90
24410;DHT22;12543;53.364;-1.504;2023-01-04T09:19:01;9.80;99.90
24410;DHT22;12543;53.364;-1.504;2023-01-04T09:21:28;9.80;99.90
24410;DHT22;12543;53.364;-1.504;2023-01-04T09:23:56;9.80;99.90
24410;DHT22;12543;53.364;-1.504;2023-01-04T09:26:24;9.80;99.90
24410;DHT22;12543;53.364;-1.504;2023-01-04T09:28:53;9.80;99.90
24410;DHT22;12543;53.364;-1.504;2023-01-04T09:31:23;9.80;99.90
24410;DHT22;12543;53.364;-1.504;2023-01-04T09:33:51;9.80;99.90
24410;DHT22;12543;53.364;-1.504;2023-01-04T09:36:38;9.80;99.90
24410;DHT22;12543;53.364;-1.504;2023-01-04T09:39:05;9.80;99.90
24410;DHT22;12543;53.364;-1.504;2023-01-04T09:41:38;9.80;99.90
24410;DHT22;12543;53.364;-1.504;2023-01-04T09:49:42;9.90;99.90
24410;DHT22;12543;53.364;-1.504;2023-01-04T09:52:19;9.90;99.90
24410;DHT22;12543;53.364;-1.504;2023-01-04T09:54:57;9.90;99.90
24410;DHT22;12543;53.364;-1.504;2023-01-04T09:57:50;9.90;99.90
24410;DHT22;12543;53.364;-1.504;2023-01-04T10:00:42;9.90;99.90
24410;DHT22;12543;53.364;-1.504;2023-01-04T10:03:39;9.90;99.90
24410;DHT22;12543;53.364;-1.504;2023-01-04T10:06:11;9.90;99.90
24410;DHT22;12543;53.364;-1.504;2023-01-04T10:08:41;9.90;99.90
24410;DHT22;12543;53.364;-1.504;2023-01-04T10:14:02;9.90;99.90
24410;DHT22;12543;53.364;-1.504;2023-01-04T10:20:22;9.90;99.90
24410;DHT22;12543;53.364;-1.504;2023-01-04T10:23:46;9.90;99.90
24410;DHT22;12543;53.364;-1.504;2023-01-04T10:26:29;9.90;99.90
24410;DHT22;12543;53.364;-1.504;2023-01-04T10:29:26;9.90;99.90
24410;DHT22;12543;53.364;-1.504;2023-01-04T10:34:42;9.90;99.90
24410;DHT22;12543;53.364;-1.504;2023-01-04T10:37:22;9.90;99.90
24410;DHT22;12543;53.364;-1.504;2023-01-04T10:39:54;9.90;99.90
24410;DHT22;12543;53.364;-1.504;2023-01-04T10:42:31;9.90;99.90
24410;DHT22;12543;53.364;-1.504;2023-01-04T10:48:03;9.90;99.90
24410;DHT22;12543;53.364;-1.504;2023-01-04T10:56:39;9.90;99.90
24410;DHT22;12543;53.364;-1.504;2023-01-04T10:59:22;10.00;99.90
24410;DHT22;12543;53.364;-1.504;2023-01-04T11:04:42;10.00;99.90
24410;DHT22;12543;53.364;-1.504;2023-01-04T11:07:27;10.00;99.90
24410;DHT22;12543;53.364;-1.504;2023-01-04T11:10:02;10.00;99.90
24410;DHT22;12543;53.364;-1.504;2023-01-04T11:12:30;10.00;99.90
24410;DHT22;12543;53.364;-1.504;2023-01-04T11:14:57;10.00;99.90
24410;DHT22;12543;53.364;-1.504;2023-01-04T11:17:25;10.00;99.90
24410;DHT22;12543;53.364;-1.504;2023-01-04T11:19:53;10.10;99.90
24410;DHT22;12543;53.364;-1.504;2023-01-04T11:22:38;10.10;99.90
24410;DHT22;12543;53.364;-1.504;2023-01-04T11:25:11;10.10;99.90
24410;DHT22;12543;53.364;-1.504;2023-01-04T11:28:15;10.10;99.90
24410;DHT22;12543;53.364;-1.504;2023-01-04T11:33:59;10.10;99.90
24410;DHT22;12543;53.364;-1.504;2023-01-04T11:38:57;10.10;99.90
24410;DHT22;12543;53.364;-1.504;2023-01-04T11:41:25;10.10;99.90
24410;DHT22;12543;53.364;-1.504;2023-01-04T11:44:03;10.10;99.90
24410;DHT22;12543;53.364;-1.504;2023-01-04T11:46:32;10.10;99.90
24410;DHT22;12543;53.364;-1.504;2023-01-04T11:49:00;10.10;99.90
24410;DHT22;12543;53.364;-1.504;2023-01-04T11:54:00;10.10;99.90
24410;DHT22;12543;53.364;-1.504;2023-01-04T11:56:29;10.20;99.90
24410;DHT22;12543;53.364;-1.504;2023-01-04T11:59:10;10.20;99.90
24410;DHT22;12543;53.364;-1.504;2023-01-04T12:01:49;10.20;99.90
24410;DHT22;12543;53.364;-1.504;2023-01-04T12:04:21;10.20;99.90
24410;DHT22;12543;53.364;-1.504;2023-01-04T12:09:22;10.20;99.90
24410;DHT22;12543;53.364;-1.504;2023-01-04T12:11:50;10.20;99.90
24410;DHT22;12543;53.364;-1.504;2023-01-04T12:16:59;10.20;99.90
24410;DHT22;12543;53.364;-1.504;2023-01-04T12:19:28;10.20;99.90
24410;DHT22;12543;53.364;-1.504;2023-01-04T12:22:01;10.20;99.90
24410;DHT22;12543;53.364;-1.504;2023-01-04T12:24:30;10.20;99.90
24410;DHT22;12543;53.364;-1.504;2023-01-04T12:26:59;10.20;99.90
24410;DHT22;12543;53.364;-1.504;2023-01-04T12:30:31;10.20;99.90
24410;DHT22;12543;53.364;-1.504;2023-01-04T12:34:44;10.20;99.90
24410;DHT22;12543;53.364;-1.504;2023-01-04T12:45:45;10.20;99.90
24410;DHT22;12543;53.364;-1.504;2023-01-04T12:48:33;10.20;99.90
24410;DHT22;12543;53.364;-1.504;2023-01-04T12:51:21;10.20;99.90
24410;DHT22;12543;53.364;-1.504;2023-01-04T12:54:01;10.20;99.90
24410;DHT22;12543;53.364;-1.504;2023-01-04T12:59:36;10.20;99.90
24410;DHT22;12543;53.364;-1.504;2023-01-04T13:04:52;10.20;99.90
24410;DHT22;12543;53.364;-1.504;2023-01-04T13:10:32;10.20;99.90
24410;DHT22;12543;53.364;-1.504;2023-01-04T13:21:43;10.30;99.90
24410;DHT22;12543;53.364;-1.504;2023-01-04T13:24:28;10.30;99.90
24410;DHT22;12543;53.364;-1.504;2023-01-04T13:29:40;10.40;99.90
24410;DHT22;12543;53.364;-1.504;2023-01-04T13:32:18;10.40;99.90
24410;DHT22;12543;53.364;-1.504;2023-01-04T13:35:02;10.40;99.90
24410;DHT22;12543;53.364;-1.504;2023-01-04T13:37:47;10.40;99.90
24410;DHT22;12543;53.364;-1.504;2023-01-04T13:42:49;10.40;99.90
24410;DHT22;12543;53.364;-1.504;2023-01-04T13:48:02;10.40;99.90
24410;DHT22;12543;53.364;-1.504;2023-01-04T13:50:43;10.40;99.90
24410;DHT22;12543;53.364;-1.504;2023-01-04T13:53:22;10.40;99.90
24410;DHT22;12543;53.364;-1.504;2023-01-04T13:56:15;10.40;99.90
24410;DHT22;12543;53.364;-1.504;2023-01-04T13:58:44;10.40;99.90
24410;DHT22;12543;53.364;-1.504;2023-01-04T14:01:12;10.40;99.90
24410;DHT22;12543;53.364;-1.504;2023-01-04T14:03:43;10.40;99.90
24410;DHT22;12543;53.364;-1.504;2023-01-04T14:06:15;10.40;99.90
24410;DHT22;12543;53.364;-1.504;2023-01-04T14:08:57;10.40;99.90
24410;DHT22;12543;53.364;-1.504;2023-01-04T14:11:28;10.40;99.90
24410;DHT22;12543;53.364;-1.504;2023-01-04T14:17:14;10.40;99.90
24410;DHT22;12543;53.364;-1.504;2023-01-04T14:19:51;10.30;99.90
24410;DHT22;12543;53.364;-1.504;2023-01-04T14:24:54;10.30;99.90
24410;DHT22;12543;53.364;-1.504;2023-01-04T14:27:41;10.30;99.90
24410;DHT22;12543;53.364;-1.504;2023-01-04T14:33:14;10.30;99.90
24410;DHT22;12543;53.364;-1.504;2023-01-04T14:35:43;10.30;99.90
24410;DHT22;12543;53.364;-1.504;2023-01-04T14:38:17;10.20;99.90
24410;DHT22;12543;53.364;-1.504;2023-01-04T14:40:45;10.20;99.90
24410;DHT22;12543;53.364;-1.504;2023-01-04T14:43:32;10.20;99.90
24410;DHT22;12543;53.364;-1.504;2023-01-04T14:46:01;10.20;99.90
24410;DHT22;12543;53.364;-1.504;2023-01-04T14:48:29;10.20;99.90
24410;DHT22;12543;53.364;-1.504;2023-01-04T14:50:57;10.20;99.90
24410;DHT22;12543;53.364;-1.504;2023-01-04T14:53:25;10.20;99.90
24410;DHT22;12543;53.364;-1.504;2023-01-04T14:55:52;10.20;99.90
24410;DHT22;12543;53.364;-1.504;2023-01-04T14:58:21;10.20;99.90
24410;DHT22;12543;53.364;-1.504;2023-01-04T15:00:48;10.20;99.90
24410;DHT22;12543;53.364;-1.504;2023-01-04T15:03:15;10.20;99.90
24410;DHT22;12543;53.364;-1.504;2023-01-04T15:05:45;10.20;99.90
24410;DHT22;12543;53.364;-1.504;2023-01-04T15:08:12;10.20;99.90
24410;DHT22;12543;53.364;-1.504;2023-01-04T15:10:39;10.20;99.90
24410;DHT22;12543;53.364;-1.504;2023-01-04T15:13:06;10.20;99.90
24410;DHT22;12543;53.364;-1.504;2023-01-04T15:15:33;10.20;99.90
24410;DHT22;12543;53.364;-1.504;2023-01-04T15:18:01;10.20;99.90
24410;DHT22;12543;53.364;-1.504;2023-01-04T15:20:28;10.20;99.90
24410;DHT22;12543;53.364;-1.504;2023-01-04T15:22:55;10.10;99.90
24410;DHT22;12543;53.364;-1.504;2023-01-04T15:25:22;10.10;99.90
24410;DHT22;12543;53.364;-1.504;2023-01-04T15:27:49;10.10;99.90
24410;DHT22;12543;53.364;-1.504;2023-01-04T15:30:16;10.10;99.90
24410;DHT22;12543;53.364;-1.504;2023-01-04T15:32:43;10.10;99.90
24410;DHT22;12543;53.364;-1.504;2023-01-04T15:35:10;10.10;99.90
24410;DHT22;12543;53.364;-1.504;2023-01-04T15:37:43;10.10;99.90
24410;DHT22;12543;53.364;-1.504;2023-01-04T15:40:11;10.10;99.90
24410;DHT22;12543;53.364;-1.504;2023-01-04T15:42:39;10.00;99.90
24410;DHT22;12543;53.364;-1.504;2023-01-04T15:45:42;10.00;99.90
24410;DHT22;12543;53.364;-1.504;2023-01-04T15:48:10;10.00;99.90
24410;DHT22;12543;53.364;-1.504;2023-01-04T15:50:39;10.00;99.90
24410;DHT22;12543;53.364;-1.504;2023-01-04T15:53:07;10.00;99.90
24410;DHT22;12543;53.364;-1.504;2023-01-04T15:55:35;9.90;99.90
24410;DHT22;12543;53.364;-1.504;2023-01-04T15:58:04;9.90;99.90
24410;DHT22;12543;53.364;-1.504;2023-01-04T16:00:31;9.90;99.90
24410;DHT22;12543;53.364;-1.504;2023-01-04T16:02:58;9.90;99.90
24410;DHT22;12543;53.364;-1.504;2023-01-04T16:05:25;9.90;99.90
24410;DHT22;12543;53.364;-1.504;2023-01-04T16:07:52;9.80;99.90
24410;DHT22;12543;53.364;-1.504;2023-01-04T16:10:19;9.80;99.90
24410;DHT22;12543;53.364;-1.504;2023-01-04T16:12:46;9.80;99.90
24410;DHT22;12543;53.364;-1.504;2023-01-04T16:15:22;9.70;99.90
24410;DHT22;12543;53.364;-1.504;2023-01-04T16:17:49;9.70;99.90
24410;DHT22;12543;53.364;-1.504;2023-01-04T16:20:17;9.70;99.90
24410;DHT22;12543;53.364;-1.504;2023-01-04T16:22:44;9.60;99.90
24410;DHT22;12543;53.364;-1.504;2023-01-04T16:25:12;9.60;99.90
24410;DHT22;12543;53.364;-1.504;2023-01-04T16:27:40;9.60;99.90
24410;DHT22;12543;53.364;-1.504;2023-01-04T16:30:10;9.60;99.90
24410;DHT22;12543;53.364;-1.504;2023-01-04T16:32:42;9.60;99.90
24410;DHT22;12543;53.364;-1.504;2023-01-04T16:35:10;9.60;99.90
24410;DHT22;12543;53.364;-1.504;2023-01-04T16:37:38;9.50;99.90
24410;DHT22;12543;53.364;-1.504;2023-01-04T16:40:05;9.50;99.90
24410;DHT22;12543;53.364;-1.504;2023-01-04T16:42:35;9.50;99.90
24410;DHT22;12543;53.364;-1.504;2023-01-04T16:45:04;9.50;99.90
24410;DHT22;12543;53.364;-1.504;2023-01-04T16:47:37;9.50;99.90
24410;DHT22;12543;53.364;-1.504;2023-01-04T16:50:05;9.50;99.90
24410;DHT22;12543;53.364;-1.504;2023-01-04T16:52:33;9.50;99.90
24410;DHT22;12543;53.364;-1.504;2023-01-04T16:54:59;9.50;99.90
24410;DHT22;12543;53.364;-1.504;2023-01-04T16:57:26;9.40;99.90
24410;DHT22;12543;53.364;-1.504;2023-01-04T16:59:53;9.40;99.90
24410;DHT22;12543;53.364;-1.504;2023-01-04T17:02:20;9.40;99.90
24410;DHT22;12543;53.364;-1.504;2023-01-04T17:04:49;9.40;99.90
24410;DHT22;12543;53.364;-1.504;2023-01-04T17:07:25;9.40;99.90
24410;DHT22;12543;53.364;-1.504;2023-01-04T17:09:58;9.40;99.90
24410;DHT22;12543;53.364;-1.504;2023-01-04T17:12:26;9.40;99.90
24410;DHT22;12543;53.364;-1.504;2023-01-04T17:15:13;9.40;99.90
24410;DHT22;12543;53.364;-1.504;2023-01-04T17:18:00;9.30;99.90
24410;DHT22;12543;53.364;-1.504;2023-01-04T17:20:27;9.30;99.90
24410;DHT22;12543;53.364;-1.504;2023-01-04T17:22:55;9.30;99.90
24410;DHT22;12543;53.364;-1.504;2023-01-04T17:25:22;9.30;99.90
24410;DHT22;12543;53.364;-1.504;2023-01-04T17:27:49;9.30;99.90
24410;DHT22;12543;53.364;-1.504;2023-01-04T17:30:16;9.30;99.90
24410;DHT22;12543;53.364;-1.504;2023-01-04T17:32:43;9.30;99.90
24410;DHT22;12543;53.364;-1.504;2023-01-04T17:35:10;9.30;99.90
24410;DHT22;12543;53.364;-1.504;2023-01-04T17:37:37;9.20;99.90
24410;DHT22;12543;53.364;-1.504;2023-01-04T17:40:04;9.20;99.90
24410;DHT22;12543;53.364;-1.504;2023-01-04T17:42:32;9.20;99.90